Time;durP1;ratioP1;P1;durP2;ratioP2;P2;SDS_P1;SDS_P2;PMS_P1;PMS_P2;Temp;Humidity;BMP_temperature;BMP_pressure;BME280_temperature;BME280_humidity;BME280_pressure;Samples;Min_cycle;Max_cycle;Signal;HPM_P1;HPM_P2
2021/09/07 00:02:33;;;;;;;25.85;16.65;;;;;;;14.97;100.00;102366.41;10455634;28;20056;-51
2021/09/07 00:07:36;;;;;;;25.88;16.15;;;;;;;15.08;100.00;102360.56;10455183;28;20489;-50
2021/09/07 00:12:38;;;;;;;25.27;16.98;;;;;;;15.18;100.00;102362.66;10454391;28;20055;-49
2021/09/07 00:17:41;;;;;;;21.90;15.18;;;;;;;15.21;100.00;102353.72;10455240;28;20049;-53
2021/09/07 00:22:44;;;;;;;27.55;17.30;;;;;;;15.20;100.00;102344.13;10462318;28;20053;-48
2021/09/07 00:27:46;;;;;;;26.58;17.13;;;;;;;15.33;100.00;102345.19;10462132;28;20432;-52
2021/09/07 00:32:48;;;;;;;28.05;17.33;;;;;;;15.38;100.00;102339.66;10462519;28;20052;-51
2021/09/07 00:37:51;;;;;;;27.67;17.70;;;;;;;15.38;100.00;102332.59;10461951;28;20049;-50
2021/09/07 00:42:53;;;;;;;27.52;17.17;;;;;;;15.58;100.00;102330.66;10461651;28;20378;-52
2021/09/07 00:47:59;;;;;;;24.25;16.83;;;;;;;15.54;100.00;102337.06;10461525;28;20053;-52
2021/09/07 00:53:01;;;;;;;24.08;16.27;;;;;;;15.53;100.00;102332.69;10461351;28;20052;-52
2021/09/07 00:58:04;;;;;;;23.95;16.13;;;;;;;15.67;100.00;102326.66;10461373;28;20041;-53
2021/09/07 01:03:06;;;;;;;22.80;16.38;;;;;;;15.67;100.00;102327.53;10460010;28;20045;-55
2021/09/07 01:08:09;;;;;;;25.95;17.70;;;;;;;15.70;100.00;102319.44;10460472;28;20068;-49
2021/09/07 01:13:11;;;;;;;21.40;15.18;;;;;;;15.72;100.00;102312.28;10460934;28;20047;-50
2021/09/07 01:18:14;;;;;;;26.65;17.77;;;;;;;15.66;100.00;102314.41;10460602;28;20041;-56
2021/09/07 01:23:17;;;;;;;25.27;17.23;;;;;;;15.76;100.00;102324.41;10460158;28;20520;-50
2021/09/07 01:28:19;;;;;;;22.58;15.77;;;;;;;15.73;100.00;102313.97;10459870;28;20056;-49
2021/09/07 01:33:22;;;;;;;21.35;15.20;;;;;;;15.77;100.00;102315.56;10458516;28;20053;-50
2021/09/07 01:38:25;;;;;;;23.95;16.13;;;;;;;15.93;100.00;102326.09;10459436;28;20049;-51
2021/09/07 01:43:28;;;;;;;21.45;15.85;;;;;;;15.79;100.00;102316.31;10460118;28;20055;-50
2021/09/07 01:48:30;;;;;;;19.10;15.77;;;;;;;15.76;100.00;102323.56;10459199;28;20095;-53
2021/09/07 01:53:33;;;;;;;24.38;16.85;;;;;;;15.75;100.00;102333.28;10459629;28;20053;-52
2021/09/07 01:58:35;;;;;;;25.33;17.08;;;;;;;15.75;100.00;102335.00;10458656;28;20413;-49
2021/09/07 02:03:38;;;;;;;21.92;16.02;;;;;;;15.78;100.00;102335.75;10458771;28;20052;-51
2021/09/07 02:08:40;;;;;;;23.70;15.80;;;;;;;15.79;100.00;102333.97;10458103;28;20435;-51
2021/09/07 02:13:43;;;;;;;22.67;15.82;;;;;;;15.63;100.00;102327.78;10458507;28;20041;-54
2021/09/07 02:18:45;;;;;;;25.55;17.02;;;;;;;15.67;100.00;102321.38;10458325;28;20075;-52
2021/09/07 02:23:47;;;;;;;23.20;14.88;;;;;;;15.41;100.00;102321.84;10458106;28;20044;-51
2021/09/07 02:28:49;;;;;;;22.38;15.70;;;;;;;15.42;100.00;102328.84;10457411;28;20048;-51
2021/09/07 02:33:52;;;;;;;24.30;15.98;;;;;;;15.60;100.00;102316.47;10457894;28;20049;-49
2021/09/07 02:38:55;;;;;;;20.50;14.18;;;;;;;15.65;100.00;102323.25;10457119;28;20056;-52
2021/09/07 02:43:57;;;;;;;26.88;16.42;;;;;;;15.60;100.00;102324.38;10457295;28;20045;-48
2021/09/07 02:49:00;;;;;;;27.25;18.50;;;;;;;15.55;100.00;102313.22;10456959;28;20045;-51
2021/09/07 02:54:02;;;;;;;27.92;18.05;;;;;;;15.63;100.00;102320.69;10456963;28;20052;-51
2021/09/07 02:59:04;;;;;;;29.02;18.02;;;;;;;15.60;100.00;102319.09;10456851;28;20103;-50
2021/09/07 03:04:07;;;;;;;26.27;16.70;;;;;;;15.77;100.00;102309.44;10456602;28;20045;-53
2021/09/07 03:09:09;;;;;;;26.50;17.10;;;;;;;15.74;100.00;102305.13;10456173;28;20489;-50
2021/09/07 03:14:11;;;;;;;27.42;17.48;;;;;;;15.65;100.00;102304.78;10456607;28;20064;-51
2021/09/07 03:19:13;;;;;;;24.23;15.93;;;;;;;15.66;100.00;102307.34;10455976;28;20493;-52
2021/09/07 03:24:16;;;;;;;27.75;18.75;;;;;;;15.60;100.00;102302.38;10456425;28;20049;-53
2021/09/07 03:29:18;;;;;;;31.60;19.20;;;;;;;15.59;100.00;102300.69;10456798;28;20057;-53
2021/09/07 03:34:21;;;;;;;28.48;20.15;;;;;;;15.50;100.00;102295.91;10456268;28;20045;-53
2021/09/07 03:39:23;;;;;;;25.20;17.45;;;;;;;15.66;100.00;102307.34;10455942;28;20052;-51
2021/09/07 03:44:25;;;;;;;28.25;17.15;;;;;;;15.56;100.00;102306.13;10456588;28;20067;-53
2021/09/07 03:49:28;;;;;;;31.08;19.15;;;;;;;15.32;100.00;102305.69;10455734;28;20052;-54
2021/09/07 03:54:30;;;;;;;26.75;17.20;;;;;;;15.37;100.00;102309.78;10458065;28;20045;-54
2021/09/07 03:59:32;;;;;;;30.27;20.13;;;;;;;15.44;100.00;102305.03;10463439;28;20056;-51
2021/09/07 04:04:35;;;;;;;30.75;18.83;;;;;;;15.45;100.00;102293.53;10463123;28;20044;-54
2021/09/07 04:09:37;;;;;;;26.63;17.83;;;;;;;15.48;100.00;102295.13;10462779;28;20041;-51
2021/09/07 04:14:40;;;;;;;28.13;17.42;;;;;;;15.37;100.00;102298.38;10463162;28;20052;-51
2021/09/07 04:19:42;;;;;;;30.05;20.33;;;;;;;15.22;100.00;102295.59;10462342;28;20400;-55
2021/09/07 04:24:44;;;;;;;27.52;18.08;;;;;;;15.27;100.00;102295.38;10462503;28;20489;-50
2021/09/07 04:29:46;;;;;;;29.42;18.50;;;;;;;15.09;100.00;102305.09;10462083;28;20409;-53
2021/09/07 04:34:49;;;;;;;24.95;19.15;;;;;;;15.01;100.00;102300.25;10462077;28;20045;-53
2021/09/07 04:39:51;;;;;;;25.25;15.85;;;;;;;14.93;100.00;102297.16;10461840;28;20049;-55
2021/09/07 04:44:54;;;;;;;29.98;17.25;;;;;;;14.85;100.00;102292.25;10462451;28;20091;-52
2021/09/07 04:49:56;;;;;;;30.83;17.90;;;;;;;14.80;100.00;102296.91;10461252;28;20485;-49
2021/09/07 04:54:58;;;;;;;27.15;17.08;;;;;;;14.85;100.00;102305.44;10461939;28;20151;-50
2021/09/07 05:00:01;;;;;;;28.30;18.42;;;;;;;14.62;100.00;102308.41;10460989;28;20049;-55
2021/09/07 05:05:06;;;;;;;28.17;18.65;;;;;;;14.53;100.00;102304.44;10460428;28;20482;-52
2021/09/07 05:10:09;;;;;;;30.23;17.95;;;;;;;14.54;100.00;102310.53;10460648;28;20482;-54
2021/09/07 05:15:12;;;;;;;31.85;18.38;;;;;;;14.43;100.00;102319.00;10460808;28;20041;-53
2021/09/07 05:20:14;;;;;;;31.05;19.13;;;;;;;14.42;100.00;102318.13;10460870;28;20077;-52
2021/09/07 05:25:16;;;;;;;32.53;20.08;;;;;;;14.41;100.00;102316.44;10460249;28;20053;-52
2021/09/07 05:30:19;;;;;;;29.13;19.77;;;;;;;14.44;100.00;102313.66;10459767;28;20382;-53
2021/09/07 05:35:21;;;;;;;38.72;21.85;;;;;;;14.61;100.00;102318.09;10460193;28;20049;-51
2021/09/07 05:40:23;;;;;;;39.05;21.83;;;;;;;14.49;100.00;102326.56;10459561;28;20057;-55
2021/09/07 05:45:26;;;;;;;33.00;21.13;;;;;;;14.52;100.00;102325.59;10459522;28;20045;-54
2021/09/07 05:50:28;;;;;;;35.42;22.48;;;;;;;14.57;100.00;102326.19;10459269;28;20048;-52
2021/09/07 05:55:31;;;;;;;33.78;22.10;;;;;;;14.70;100.00;102323.84;10459686;28;20114;-53
2021/09/07 06:00:33;;;;;;;34.20;21.05;;;;;;;14.75;100.00;102335.00;10458838;28;20053;-54
2021/09/07 06:05:36;;;;;;;41.55;23.10;;;;;;;14.83;100.00;102340.75;10458570;28;20099;-56
2021/09/07 06:10:38;;;;;;;40.45;23.17;;;;;;;14.94;100.00;102335.75;10458167;28;20401;-54
2021/09/07 06:15:41;;;;;;;33.13;20.38;;;;;;;15.34;100.00;102330.19;10457810;28;20045;-56
2021/09/07 06:20:44;;;;;;;37.67;22.25;;;;;;;15.36;100.00;102341.53;10457537;28;20457;-56
2021/09/07 06:25:46;;;;;;;43.15;25.17;;;;;;;15.37;100.00;102338.81;10457501;28;20049;-52
2021/09/07 06:30:53;;;;;;;36.70;22.50;;;;;;;15.54;100.00;102337.06;10457616;28;20093;-55
2021/09/07 06:35:56;;;;;;;40.30;22.83;;;;;;;15.80;100.00;102338.28;10457199;28;20485;-57
2021/09/07 06:40:58;;;;;;;36.20;22.48;;;;;;;15.92;100.00;102339.41;10457126;28;20059;-56
2021/09/07 06:46:01;;;;;;;32.17;20.00;;;;;;;16.11;100.00;102334.81;10457035;28;20052;-56
2021/09/07 06:51:03;;;;;;;32.10;20.67;;;;;;;16.46;100.00;102333.75;10456863;28;20092;-57
2021/09/07 06:56:06;;;;;;;36.47;24.85;;;;;;;17.21;100.00;102339.00;10456888;28;20049;-54
2021/09/07 07:01:08;;;;;;;39.47;24.40;;;;;;;17.64;100.00;102331.06;10456461;28;20166;-55
2021/09/07 07:06:11;;;;;;;38.45;24.50;;;;;;;17.54;100.00;102332.59;10456447;28;20382;-55
2021/09/07 07:11:13;;;;;;;36.20;23.65;;;;;;;17.51;100.00;102336.25;10456356;28;20053;-56
2021/09/07 07:16:16;;;;;;;39.95;26.35;;;;;;;17.87;100.00;102334.94;10456430;28;20056;-54
2021/09/07 07:21:18;;;;;;;38.42;26.65;;;;;;;17.81;100.00;102337.94;10456788;28;20053;-57
2021/09/07 07:26:21;;;;;;;38.33;27.75;;;;;;;18.07;100.00;102343.38;10456716;28;20059;-56
2021/09/07 07:31:23;;;;;;;43.08;30.38;;;;;;;18.09;100.00;102350.28;10463479;28;20167;-57
2021/09/07 07:36:26;;;;;;;36.53;26.23;;;;;;;18.14;99.61;102342.03;10464781;28;20049;-54
2021/09/07 07:41:28;;;;;;;45.55;27.63;;;;;;;18.24;100.00;102348.44;10464861;28;20053;-54
2021/09/07 07:46:30;;;;;;;39.75;27.17;;;;;;;18.59;100.00;102349.72;10464426;28;20056;-57
2021/09/07 07:51:33;;;;;;;39.63;26.23;;;;;;;18.69;100.00;102356.09;10463865;28;20051;-56
2021/09/07 07:56:36;;;;;;;42.28;27.08;;;;;;;18.82;100.00;102346.34;10462505;28;20049;-57
2021/09/07 08:01:39;;;;;;;45.22;26.25;;;;;;;19.36;98.89;102347.97;10462589;28;20057;-57
2021/09/07 08:06:42;;;;;;;38.35;28.77;;;;;;;19.55;97.07;102366.16;10462002;28;20114;-56
2021/09/07 08:11:44;;;;;;;38.80;26.30;;;;;;;19.83;93.59;102362.38;10463575;28;20049;-57
2021/09/07 08:16:46;;;;;;;38.63;28.27;;;;;;;19.83;94.70;102372.16;10462851;28;20485;-57
2021/09/07 08:21:48;;;;;;;36.17;27.30;;;;;;;20.22;92.86;102373.75;10462589;28;20049;-57
2021/09/07 08:26:51;;;;;;;35.88;26.70;;;;;;;20.54;93.13;102373.16;10462318;28;20064;-57
2021/09/07 08:31:53;;;;;;;38.30;27.67;;;;;;;20.71;91.26;102371.94;10462273;28;20045;-58
2021/09/07 08:36:56;;;;;;;39.75;25.92;;;;;;;21.48;89.13;102375.81;10462414;28;20052;-57
2021/09/07 08:41:59;;;;;;;38.20;27.95;;;;;;;21.58;87.21;102370.59;10461347;28;20059;-57
2021/09/07 08:47:02;;;;;;;35.78;25.38;;;;;;;22.33;83.65;102372.53;10460705;28;20045;-55
2021/09/07 08:52:04;;;;;;;34.90;22.65;;;;;;;22.65;79.07;102368.16;10461288;28;20127;-57
2021/09/07 08:57:07;;;;;;;38.78;26.95;;;;;;;21.94;76.87;102372.16;10460046;28;20049;-53
2021/09/07 09:02:17;;;;;;;33.38;24.63;;;;;;;21.91;76.55;102367.06;10461176;28;20057;-56
2021/09/07 09:07:24;;;;;;;32.30;25.23;;;;;;;22.40;76.50;102363.03;10460805;28;20110;-55
2021/09/07 09:12:39;;;;;;;34.33;23.92;;;;;;;22.74;73.69;102356.69;10460999;28;20059;-56
2021/09/07 09:17:42;;;;;;;35.03;25.60;;;;;;;22.25;72.29;102369.63;10461284;28;20041;-54
2021/09/07 09:22:48;;;;;;;33.88;25.17;;;;;;;23.44;65.05;102362.31;10460546;28;20060;-50
2021/09/07 09:27:56;;;;;;;33.63;23.13;;;;;;;24.92;60.98;102360.50;10459839;28;20053;-55
2021/09/07 09:32:59;;;;;;;34.97;24.65;;;;;;;23.17;65.76;102361.91;10460183;28;20053;-54
2021/09/07 09:38:06;;;;;;;27.02;21.08;;;;;;;24.30;61.54;102368.84;10458543;28;20048;-55
2021/09/07 09:43:21;;;;;;;31.67;23.38;;;;;;;25.08;59.68;102351.00;10459949;28;20389;-55
2021/09/07 09:48:29;;;;;;;27.08;22.50;;;;;;;25.25;60.00;102349.38;10459070;28;20053;-52
2021/09/07 09:53:31;;;;;;;30.58;21.27;;;;;;;24.71;55.02;102349.97;10457969;28;20041;-55
2021/09/07 09:58:34;;;;;;;27.58;19.73;;;;;;;25.10;53.85;102336.47;10457288;28;20059;-53
2021/09/07 10:03:39;;;;;;;28.25;19.05;;;;;;;25.07;57.18;102344.81;10440591;28;20045;-58
2021/09/07 10:08:42;;;;;;;26.05;17.88;;;;;;;26.43;52.82;102342.34;10458616;28;20079;-58
2021/09/07 10:13:48;;;;;;;20.52;16.40;;;;;;;27.79;50.92;102343.44;10458783;28;20045;-58
2021/09/07 10:19:08;;;;;;;;;;;;;;;26.32;49.58;102346.09;10534007;28;20114;-56
2021/09/07 10:29:15;;;;;;;17.27;15.40;;;;;;;26.84;50.04;102310.41;10534009;28;20048;-58
2021/09/07 10:34:24;;;;;;;19.70;15.80;;;;;;;27.08;47.35;102317.75;10532768;28;20044;-51
2021/09/07 10:39:35;;;;;;;20.02;14.25;;;;;;;25.75;47.71;102319.50;10533589;28;20048;-56
2021/09/07 10:44:42;;;;;;;18.52;14.63;;;;;;;28.04;44.90;102310.34;10532454;28;20052;-54
2021/09/07 10:49:49;;;;;;;16.92;13.75;;;;;;;27.97;45.83;102307.47;10533688;28;20063;-57
2021/09/07 10:55:09;;;;;;;17.15;13.73;;;;;;;27.86;44.30;102313.19;10533127;28;20051;-57
2021/09/07 11:00:18;;;;;;;19.73;15.80;;;;;;;27.48;46.86;102296.59;10533032;28;20044;-55
2021/09/07 11:05:23;;;;;;;17.65;14.43;;;;;;;28.49;43.69;102292.84;10532832;28;20052;-55
2021/09/07 11:10:28;;;;;;;16.08;13.13;;;;;;;29.06;43.43;102284.63;10532389;28;20040;-56
2021/09/07 11:15:36;;;;;;;17.02;12.98;;;;;;;29.21;45.61;102284.75;10532260;28;20057;-58
2021/09/07 11:20:44;;;;;;;21.60;14.68;;;;;;;28.12;45.41;102283.44;10532249;28;20040;-54
2021/09/07 11:25:49;;;;;;;14.32;12.82;;;;;;;28.64;43.68;102277.69;10529444;28;20044;-55
2021/09/07 11:30:52;;;;;;;14.80;13.20;;;;;;;27.96;41.66;102279.75;10503979;28;20044;-55
2021/09/07 11:35:58;;;;;;;20.10;12.75;;;;;;;28.87;44.68;102268.88;10503931;28;20078;-55
2021/09/07 11:41:14;;;;;;;17.52;13.57;;;;;;;29.01;43.78;102268.13;10503418;28;20409;-54
2021/09/07 11:46:23;;;;;;;16.92;14.00;;;;;;;28.64;44.41;102261.50;10503447;28;20045;-55
2021/09/07 11:51:28;;;;;;;18.73;13.27;;;;;;;28.77;42.04;102268.22;10503044;28;20408;-56
2021/09/07 11:56:32;;;;;;;13.50;11.18;;;;;;;29.89;41.72;102263.47;10501874;28;20044;-56
2021/09/07 12:01:51;;;;;;;14.40;10.32;;;;;;;31.08;42.24;102258.19;10502384;28;20055;-55
2021/09/07 12:07:02;;;;;;;13.38;11.68;;;;;;;30.97;40.44;102258.69;10502371;28;20404;-54
2021/09/07 12:12:06;;;;;;;13.98;11.55;;;;;;;30.07;39.82;102255.03;10501930;28;20490;-55
2021/09/07 12:17:15;;;;;;;13.98;10.73;;;;;;;29.22;44.94;102253.25;10502527;28;20059;-56
2021/09/07 12:22:29;;;;;;;12.05;10.27;;;;;;;29.62;42.93;102257.56;10501743;28;20419;-55
2021/09/07 12:27:46;;;;;;;13.77;11.07;;;;;;;29.86;42.48;102253.03;10501553;28;20045;-55
2021/09/07 12:32:50;;;;;;;14.77;10.93;;;;;;;28.56;41.35;102241.84;10501310;28;20041;-57
2021/09/07 12:37:52;;;;;;;15.23;10.95;;;;;;;28.88;41.96;102241.75;10499892;28;20499;-53
2021/09/07 12:42:54;;;;;;;13.93;12.13;;;;;;;27.42;43.06;102245.16;10500593;28;20536;-54
2021/09/07 12:47:57;;;;;;;13.45;10.82;;;;;;;28.43;42.65;102237.81;10500155;28;20397;-57
2021/09/07 12:53:00;;;;;;;9.15;8.25;;;;;;;31.58;39.23;102235.88;10500250;28;20511;-56
2021/09/07 12:58:02;;;;;;;12.95;9.20;;;;;;;29.48;42.78;102230.50;10500050;28;20045;-57
2021/09/07 13:03:05;;;;;;;9.95;8.52;;;;;;;29.83;43.29;102221.81;10500488;28;20051;-53
2021/09/07 13:08:10;;;;;;;11.35;8.23;;;;;;;30.70;40.63;102206.13;10499810;28;20080;-56
2021/09/07 13:13:12;;;;;;;10.88;8.75;;;;;;;29.97;40.94;102211.25;10499844;28;20044;-55
2021/09/07 13:18:15;;;;;;;13.68;10.88;;;;;;;29.15;41.92;102203.69;10499110;28;20060;-53
2021/09/07 13:23:17;;;;;;;15.35;11.13;;;;;;;30.24;40.27;102192.75;10498983;28;20053;-56
2021/09/07 13:28:20;;;;;;;11.60;10.23;;;;;;;31.76;35.83;102209.19;10498858;28;20412;-58
2021/09/07 13:33:23;;;;;;;15.70;10.23;;;;;;;31.11;40.89;102200.19;10497629;28;20499;-56
2021/09/07 13:38:25;;;;;;;13.27;9.32;;;;;;;28.37;42.59;102189.16;10498540;28;20450;-56
2021/09/07 13:43:27;;;;;;;12.43;9.57;;;;;;;29.23;41.22;102190.19;10498605;28;20049;-57
2021/09/07 13:48:30;;;;;;;8.73;7.90;;;;;;;32.22;36.98;102176.19;10498488;28;20048;-58
2021/09/07 13:53:33;;;;;;;8.65;7.75;;;;;;;32.19;37.16;102171.19;10498156;28;20040;-56
2021/09/07 13:58:35;;;;;;;9.07;8.05;;;;;;;30.88;38.19;102166.00;10498171;28;20056;-57
2021/09/07 14:03:38;;;;;;;9.52;7.80;;;;;;;30.68;39.48;102165.75;10498729;28;20046;-57
2021/09/07 14:08:41;;;;;;;8.65;7.68;;;;;;;31.20;38.86;102160.31;10497892;28;20052;-56
2021/09/07 14:13:43;;;;;;;9.75;6.28;;;;;;;33.46;35.81;102155.38;10498502;28;20048;-57
2021/09/07 14:18:46;;;;;;;8.60;6.90;;;;;;;31.13;38.60;102154.84;10497797;28;20068;-56
2021/09/07 14:23:48;;;;;;;8.20;5.65;;;;;;;33.58;35.67;102152.06;10497876;28;20055;-57
2021/09/07 14:28:50;;;;;;;10.45;6.90;;;;;;;30.20;39.48;102132.88;10497449;28;20416;-57
2021/09/07 14:33:53;;;;;;;8.50;6.20;;;;;;;32.82;37.55;102145.00;10497598;28;20055;-57
2021/09/07 14:38:55;;;;;;;6.95;6.25;;;;;;;31.32;38.47;102145.28;10497322;28;20048;-56
2021/09/07 14:43:57;;;;;;;9.98;7.10;;;;;;;29.85;43.50;102129.84;10497392;28;20544;-56
2021/09/07 14:49:00;;;;;;;7.07;6.03;;;;;;;31.61;38.87;102129.94;10497122;28;20444;-56
2021/09/07 14:54:02;;;;;;;7.25;6.45;;;;;;;30.16;42.92;102127.00;10497118;28;20485;-54
2021/09/07 14:59:04;;;;;;;7.90;6.40;;;;;;;30.54;40.24;102115.25;10497152;28;20044;-56
2021/09/07 15:04:07;;;;;;;8.57;5.93;;;;;;;32.85;38.34;102121.06;10502678;28;20067;-57
2021/09/07 15:09:09;;;;;;;8.35;7.53;;;;;;;27.94;46.16;102119.41;10504480;28;20489;-56
2021/09/07 15:14:11;;;;;;;7.43;5.90;;;;;;;28.86;43.17;102118.94;10504555;28;20052;-56
2021/09/07 15:19:14;;;;;;;7.88;6.57;;;;;;;29.76;41.40;102107.47;10503912;28;20489;-56
2021/09/07 15:24:16;;;;;;;6.60;5.88;;;;;;;28.33;42.82;102113.28;10504394;28;20055;-53
2021/09/07 15:29:18;;;;;;;7.90;6.18;;;;;;;29.93;41.41;102108.19;10503825;28;20048;-57
2021/09/07 15:34:21;;;;;;;8.35;6.70;;;;;;;27.60;45.74;102104.31;10503687;28;20052;-56
2021/09/07 15:39:23;;;;;;;6.97;6.03;;;;;;;29.52;42.16;102105.00;10503351;28;20476;-57
2021/09/07 15:44:25;;;;;;;8.30;6.25;;;;;;;26.65;47.88;102102.81;10503210;28;20507;-57
2021/09/07 15:49:28;;;;;;;10.27;6.53;;;;;;;26.73;48.17;102106.50;10501739;28;20408;-54
2021/09/07 15:54:33;;;;;;;8.75;6.40;;;;;;;26.01;50.62;102088.88;10502888;28;20057;-53
2021/09/07 15:59:35;;;;;;;11.85;6.40;;;;;;;25.70;53.44;102092.00;10502657;28;20044;-54
2021/09/07 16:04:37;;;;;;;9.20;6.78;;;;;;;25.65;52.11;102088.94;10502935;28;20047;-54
2021/09/07 16:09:40;;;;;;;7.20;6.40;;;;;;;25.33;53.48;102084.16;10500952;28;20051;-54
2021/09/07 16:14:43;;;;;;;12.38;7.00;;;;;;;25.31;56.96;102083.47;10500061;28;20057;-55
2021/09/07 16:19:45;;;;;;;8.48;6.68;;;;;;;24.93;56.68;102080.06;10501645;28;20214;-51
2021/09/07 16:24:47;;;;;;;7.55;6.35;;;;;;;25.06;56.54;102079.69;10501667;28;20527;-54
2021/09/07 16:29:50;;;;;;;9.02;6.10;;;;;;;23.86;63.94;102084.06;10501228;28;20492;-53
2021/09/07 16:34:52;;;;;;;7.80;6.45;;;;;;;23.55;67.23;102078.84;10501292;28;20045;-56
2021/09/07 16:39:54;;;;;;;8.40;5.88;;;;;;;23.59;67.38;102074.91;10500768;28;20052;-54
2021/09/07 16:44:57;;;;;;;12.52;6.75;;;;;;;23.62;69.08;102065.75;10501153;28;20041;-55
2021/09/07 16:49:59;;;;;;;9.27;6.93;;;;;;;23.50;68.31;102060.59;10501284;28;20048;-54
2021/09/07 16:55:05;;;;;;;27.52;13.48;;;;;;;22.93;73.40;102055.06;10500572;28;20044;-52
2021/09/07 17:00:08;;;;;;;31.13;14.40;;;;;;;22.74;73.84;102058.53;10500293;28;20048;-55
2021/09/07 17:05:12;;;;;;;22.50;13.82;;;;;;;22.20;80.25;102059.75;10500106;28;20128;-56
2021/09/07 17:10:14;;;;;;;27.10;12.15;;;;;;;22.70;74.08;102053.63;10499555;28;20435;-53
2021/09/07 17:15:17;;;;;;;9.63;7.38;;;;;;;21.90;82.72;102045.41;10500221;28;20055;-56
2021/09/07 17:20:20;;;;;;;11.32;6.90;;;;;;;21.89;82.51;102046.41;10499257;28;20480;-54
2021/09/07 17:25:22;;;;;;;10.80;7.40;;;;;;;21.62;85.08;102039.78;10499068;28;20056;-54
2021/09/07 17:30:28;;;;;;;10.40;7.80;;;;;;;21.37;87.13;102053.44;10498768;28;20412;-54
2021/09/07 17:46:03;;;;;;;10.10;8.02;;;;;;;21.04;87.90;102034.81;10499484;28;20054;-57
2021/09/07 17:51:05;;;;;;;9.18;8.25;;;;;;;20.94;88.00;102040.03;10498345;28;20106;-54
2021/09/07 17:56:11;;;;;;;9.30;8.00;;;;;;;20.68;89.74;102038.66;10498329;28;20131;-53
2021/09/07 18:01:14;;;;;;;12.40;8.52;;;;;;;20.57;89.63;102040.34;10498291;28;20119;-55
2021/09/07 18:06:19;;;;;;;11.88;8.65;;;;;;;20.54;88.79;102039.75;10498206;28;20090;-56
2021/09/07 18:11:42;;;;;;;10.50;9.45;;;;;;;20.03;92.01;102044.59;10497409;28;20078;-53
2021/09/07 18:16:45;;;;;;;12.50;8.77;;;;;;;19.95;90.86;102040.84;10497646;28;20411;-55
2021/09/07 18:21:49;;;;;;;11.55;9.32;;;;;;;19.75;92.65;102040.56;10496642;28;20515;-56
2021/09/07 18:26:52;;;;;;;9.65;8.65;;;;;;;19.58;93.91;102043.63;10497726;28;20056;-56
2021/09/07 18:31:55;;;;;;;11.18;7.65;;;;;;;19.49;92.70;102047.84;10498299;28;20045;-53
2021/09/07 18:36:57;;;;;;;11.20;8.68;;;;;;;19.44;91.54;102048.19;10499462;28;20059;-55
2021/09/07 18:41:59;;;;;;;8.75;7.82;;;;;;;19.17;93.65;102053.75;10505707;28;20045;-54
2021/09/07 18:47:02;;;;;;;8.55;6.95;;;;;;;19.05;94.29;102046.72;10505518;28;20412;-56
2021/09/07 18:52:05;;;;;;;9.32;7.57;;;;;;;18.90;94.83;102057.47;10505401;28;20481;-55
2021/09/07 18:57:07;;;;;;;12.85;7.95;;;;;;;18.81;95.10;102058.13;10503861;28;20127;-53
2021/09/07 19:02:10;;;;;;;8.27;7.45;;;;;;;18.78;95.79;102057.47;10504889;28;20045;-55
2021/09/07 19:07:13;;;;;;;13.30;8.63;;;;;;;18.71;95.51;102052.63;10504837;28;20056;-55
2021/09/07 19:12:21;;;;;;;10.95;9.10;;;;;;;18.56;94.82;102064.34;10504623;28;20052;-53
2021/09/07 19:17:24;;;;;;;10.77;7.78;;;;;;;18.52;95.70;102062.84;10504934;28;20404;-56
2021/09/07 19:22:26;;;;;;;14.25;7.45;;;;;;;18.68;94.12;102065.28;10504390;28;20412;-54
2021/09/07 19:27:29;;;;;;;11.40;8.23;;;;;;;18.34;94.17;102068.50;10503757;28;20056;-55
2021/09/07 19:32:31;;;;;;;10.35;7.47;;;;;;;18.31;94.13;102066.06;10504317;28;20040;-56
2021/09/07 19:37:33;;;;;;;11.93;9.07;;;;;;;18.22;95.09;102064.03;10503586;28;20056;-53
2021/09/07 19:42:36;;;;;;;9.57;7.90;;;;;;;18.20;95.21;102058.84;10503351;28;20504;-54
2021/09/07 19:47:39;;;;;;;9.27;7.85;;;;;;;18.06;95.87;102064.28;10502918;28;20052;-53
2021/09/07 19:52:42;;;;;;;9.00;7.68;;;;;;;18.10;95.86;102063.09;10501750;28;20051;-53
2021/09/07 19:57:44;;;;;;;11.23;7.90;;;;;;;18.06;96.16;102050.19;10502848;28;20060;-54
2021/09/07 20:02:46;;;;;;;10.20;8.68;;;;;;;17.84;96.70;102041.03;10502351;28;20052;-54
2021/09/07 20:07:49;;;;;;;14.98;8.32;;;;;;;17.80;96.93;102048.34;10502881;28;20055;-55
2021/09/07 20:12:51;;;;;;;11.15;7.90;;;;;;;17.75;96.64;102045.16;10502322;28;20049;-52
2021/09/07 20:17:54;;;;;;;20.20;10.38;;;;;;;17.83;96.58;102047.28;10501955;28;20053;-53
2021/09/07 20:22:56;;;;;;;14.82;11.68;;;;;;;18.00;95.11;102041.72;10502083;28;20048;-53
2021/09/07 20:27:58;;;;;;;16.73;11.80;;;;;;;17.75;95.27;102041.66;10501602;28;20044;-54
2021/09/07 20:33:02;;;;;;;14.85;11.32;;;;;;;17.78;96.02;102044.09;10501402;28;20055;-55
2021/09/07 20:38:05;;;;;;;16.05;11.07;;;;;;;17.55;97.19;102043.88;10501083;28;20052;-51
2021/09/07 20:43:07;;;;;;;13.70;10.55;;;;;;;17.75;96.19;102039.00;10501834;28;20063;-55
2021/09/07 20:48:11;;;;;;;14.63;10.10;;;;;;;17.45;97.24;102040.97;10500680;28;20048;-52
2021/09/07 20:53:14;;;;;;;11.55;8.98;;;;;;;17.19;100.00;102037.41;10500728;28;20048;-53
2021/09/07 20:58:16;;;;;;;13.13;8.63;;;;;;;17.44;98.41;102044.56;10500227;28;20067;-54
2021/09/07 21:03:21;;;;;;;14.82;8.93;;;;;;;17.25;99.11;102037.00;10499714;28;20048;-55
2021/09/07 21:08:24;;;;;;;14.43;9.82;;;;;;;17.21;99.43;102039.94;10499887;28;20431;-55
2021/09/07 21:13:26;;;;;;;15.43;9.48;;;;;;;17.12;100.00;102032.63;10499821;28;20527;-55
2021/09/07 21:18:29;;;;;;;11.45;9.27;;;;;;;17.06;100.00;102024.16;10499572;28;20056;-55
2021/09/07 21:23:31;;;;;;;14.57;9.77;;;;;;;17.26;98.43;102021.97;10499458;28;20052;-54
2021/09/07 21:28:33;;;;;;;15.57;9.93;;;;;;;16.96;100.00;102008.97;10499055;28;20044;-54
2021/09/07 21:33:36;;;;;;;17.20;8.98;;;;;;;17.20;100.00;102014.44;10499025;28;20410;-54
2021/09/07 21:38:38;;;;;;;13.38;10.80;;;;;;;16.99;99.85;102014.06;10498674;28;20045;-54
2021/09/07 21:43:40;;;;;;;10.93;9.35;;;;;;;16.83;100.00;102011.53;10498703;28;20420;-51
2021/09/07 21:48:42;;;;;;;14.68;9.60;;;;;;;16.81;100.00;102010.75;10498588;28;20052;-52
2021/09/07 21:53:45;;;;;;;14.93;9.75;;;;;;;16.84;100.00;102014.09;10497709;28;20048;-55
2021/09/07 21:58:47;;;;;;;14.20;10.50;;;;;;;16.81;100.00;102009.00;10498309;28;20056;-55
2021/09/07 22:03:49;;;;;;;15.30;10.25;;;;;;;16.63;100.00;102010.16;10498349;28;20044;-55
2021/09/07 22:08:52;;;;;;;16.10;10.80;;;;;;;16.51;100.00;102007.34;10497969;28;20542;-52
2021/09/07 22:13:54;;;;;;;11.60;9.77;;;;;;;16.56;100.00;102003.56;10497818;28;20048;-55
2021/09/07 22:19:00;;;;;;;13.10;9.70;;;;;;;16.51;100.00;101988.00;10497597;28;20051;-56
2021/09/07 22:24:02;;;;;;;15.70;10.90;;;;;;;16.46;100.00;101990.09;10498155;28;20060;-53
2021/09/07 22:29:05;;;;;;;15.18;10.60;;;;;;;16.56;100.00;101985.91;10497627;28;20052;-52
2021/09/07 22:34:07;;;;;;;12.75;10.27;;;;;;;16.45;100.00;101988.38;10498092;28;20051;-51
2021/09/07 22:39:09;;;;;;;13.05;9.55;;;;;;;16.66;100.00;101983.50;10497231;28;20049;-53
2021/09/07 22:44:12;;;;;;;14.02;10.40;;;;;;;16.43;100.00;101985.00;10498128;28;20040;-56
2021/09/07 22:49:14;;;;;;;21.00;11.35;;;;;;;16.35;100.00;101977.53;10497247;28;20048;-52
2021/09/07 22:54:16;;;;;;;16.38;11.63;;;;;;;16.45;100.00;101978.66;10497146;28;20492;-52
2021/09/07 22:59:19;;;;;;;15.70;11.32;;;;;;;16.24;100.00;101975.59;10497304;28;20052;-54